Wednesday, November 22, 2017, 8:01 AM EST
Back to Local

KBED, Bedford Hanscom Field

Location: Concord, MA, United States Lat: 42.467
Local Time: 8:01 AM EST (13:01 GMT) Lon: -71.3
Time Zone: US/Eastern Elev: 134 ft

Show me the last for .
Show Decoded

2017-11-22 06:56 METAR KBED 221156Z 00000KT 10SM OVC080 09/06 A2992 RMK AO2 SLP146 T00890061
                 10100 20078 58019 =
2017-11-22 05:56 METAR KBED 221056Z AUTO 13003KT 10SM OVC090 10/06 A2994 RMK AO2 SLP152 T01000061
                 =
2017-11-22 04:56 METAR KBED 220956Z AUTO 17005KT 10SM OVC090 10/06 A2997 RMK AO2 SLP162 T01000056
                 =
2017-11-22 03:56 METAR KBED 220856Z AUTO 17004KT 10SM SCT090 08/04 A2998 RMK AO2 SLP165 T00830044
                 57003 =
2017-11-22 02:56 METAR KBED 220756Z AUTO 22003KT 10SM CLR 09/04 A2998 RMK AO2 SLP165 T00890044 =
2017-11-22 01:56 METAR KBED 220656Z AUTO 20005KT 10SM CLR 08/04 A2999 RMK AO2 SLP169 T00780039 =
2017-11-22 00:56 METAR KBED 220556Z AUTO 21005KT 10SM CLR 08/03 A2999 RMK AO2 SLP169 T00830028
                 10100 20072 58001 =
2017-11-21 23:56 METAR KBED 220456Z AUTO 21004KT 10SM CLR 08/03 A3001 RMK AO2 SLP176 T00780028
                 401501033 =
2017-11-21 22:56 METAR KBED 220356Z AUTO 22009KT 10SM CLR 09/04 A3000 RMK AO2 SLP173 T00890039 =
2017-11-21 21:56 METAR KBED 220256Z 23008KT 10SM CLR 09/03 A2999 RMK AO2 SLP170 T00940033 52002 =
2017-11-21 20:56 METAR KBED 220156Z 22009KT 10SM CLR 09/03 A2999 RMK AO2 SLP168 T00940033 =
2017-11-21 19:56 METAR KBED 220056Z 22011KT 10SM CLR 09/01 A2999 RMK AO2 SLP169 T00940011 =
2017-11-21 18:56 METAR KBED 212356Z 21006KT 10SM SCT250 09/01 A2999 RMK AO2 SLP169 T00940011
                 10150 20094 53004 =
2017-11-21 17:56 METAR KBED 212256Z 19010KT 10SM SCT250 11/01 A2997 RMK AO2 SLP162 T01060011 =
2017-11-21 16:56 METAR KBED 212156Z 20011KT 10SM SCT250 11/01 A2997 RMK AO2 SLP164 T01110006 =
2017-11-21 15:56 METAR KBED 212056Z 20011KT 10SM SCT250 12/00 A2997 RMK AO2 PK WND 20026/2014
                 SLP164 T01220000 56004 =
2017-11-21 14:56 METAR KBED 211956Z 21017G27KT 10SM SCT250 14/M01 A2998 RMK AO2 PK WND 21027/1953
                 SLP165 T01441011 =
2017-11-21 13:56 METAR KBED 211856Z 22021G26KT 10SM FEW250 15/M03 A2997 RMK AO2 PK WND 21028/1845
                 SLP164 T01501028 =
2017-11-21 12:56 METAR KBED 211756Z 22017G29KT 10SM SCT250 14/M03 A2998 RMK AO2 PK WND 20030/1712
                 SLP167 T01441033 10144 21022 58031 =
2017-11-21 11:56 METAR KBED 211656Z 21019G27KT 10SM SCT250 13/M03 A3001 RMK AO2 PK WND 23030/1631
                 SLP177 T01331028 =
2017-11-21 10:56 METAR KBED 211556Z 22021G29KT 10SM CLR 13/M03 A3005 RMK AO2 PK WND 19036/1531
                 SLP189 T01281028 =
2017-11-21 09:56 METAR KBED 211456Z 22008G17KT 10SM CLR 11/M03 A3008 RMK AO2 SLP199 T01061033
                 58004 =
2017-11-21 08:56 METAR KBED 211356Z VRB04KT 10SM BKN200 07/M03 A3008 RMK AO2 SLP201 T00671033 =

Support USWX by starting your Amazon purchase here.